Terminal Aerodrome Forecast
Issued by NWS Mt. Holly, NJ

Home | Current Version | Previous Version | Text Only | Print | Product List | Glossary On
Versions: 1 2 3 4 5 6 7 8 9 10 11 12 13 14 15 16 17 18 19 20
000
FTUS41 KPHI 301722
TAFILG
TAF
KILG 301722Z 3018/3118 16006KT P6SM VCSH SCT025 BKN100
      TEMPO 3020/3023 -SHRA BKN030
     FM310000 24005KT 6SM BR BKN100
     FM310300 25003KT 3SM BR SCT100
     FM310600 00000KT 1 1/2SM BR VV006
     FM311200 33003KT 5SM BR FEW040
     FM311400 36005KT P6SM FEW040=

USA.gov is the U.S. government's official web portal to all federal, state and local government web resources and services.